sensor_id;sensor_type;location;lat;lon;timestamp;temperature;humidity
35043;DHT22;21230;51.170;17.024;2023-02-28T00:00:05;-0.60;99.90
35043;DHT22;21230;51.170;17.024;2023-02-28T00:02:37;-0.60;99.90
35043;DHT22;21230;51.170;17.024;2023-02-28T00:05:03;-0.60;99.90
35043;DHT22;21230;51.170;17.024;2023-02-28T00:07:30;-0.60;99.90
35043;DHT22;21230;51.170;17.024;2023-02-28T00:09:56;-0.70;99.90
35043;DHT22;21230;51.170;17.024;2023-02-28T00:12:21;-0.70;99.90
35043;DHT22;21230;51.170;17.024;2023-02-28T00:14:47;-0.60;99.90
35043;DHT22;21230;51.170;17.024;2023-02-28T00:17:13;-0.60;99.90
35043;DHT22;21230;51.170;17.024;2023-02-28T00:19:38;-0.60;99.90
35043;DHT22;21230;51.170;17.024;2023-02-28T00:22:04;-0.60;99.90
35043;DHT22;21230;51.170;17.024;2023-02-28T00:24:30;-0.60;99.90
35043;DHT22;21230;51.170;17.024;2023-02-28T00:26:55;-0.60;99.90
35043;DHT22;21230;51.170;17.024;2023-02-28T00:29:21;-0.60;99.90
35043;DHT22;21230;51.170;17.024;2023-02-28T00:31:46;-0.60;99.90
35043;DHT22;21230;51.170;17.024;2023-02-28T00:34:12;-0.60;99.90
35043;DHT22;21230;51.170;17.024;2023-02-28T00:36:38;-0.60;99.90
35043;DHT22;21230;51.170;17.024;2023-02-28T00:39:04;-0.60;99.90
35043;DHT22;21230;51.170;17.024;2023-02-28T00:41:29;-0.50;99.90
35043;DHT22;21230;51.170;17.024;2023-02-28T00:43:55;-0.50;99.90
35043;DHT22;21230;51.170;17.024;2023-02-28T00:46:21;-0.50;99.90
35043;DHT22;21230;51.170;17.024;2023-02-28T00:48:46;-0.50;99.90
35043;DHT22;21230;51.170;17.024;2023-02-28T00:51:12;-0.50;99.90
35043;DHT22;21230;51.170;17.024;2023-02-28T00:53:38;-0.50;99.90
35043;DHT22;21230;51.170;17.024;2023-02-28T00:56:03;-0.50;99.90
35043;DHT22;21230;51.170;17.024;2023-02-28T00:58:29;-0.40;99.90
35043;DHT22;21230;51.170;17.024;2023-02-28T01:00:55;-0.40;99.90
35043;DHT22;21230;51.170;17.024;2023-02-28T01:03:21;-0.40;99.90
35043;DHT22;21230;51.170;17.024;2023-02-28T01:05:47;-0.40;99.90
35043;DHT22;21230;51.170;17.024;2023-02-28T01:08:13;-0.40;99.90
35043;DHT22;21230;51.170;17.024;2023-02-28T01:10:39;-0.40;99.90
35043;DHT22;21230;51.170;17.024;2023-02-28T01:13:05;-0.40;99.90
35043;DHT22;21230;51.170;17.024;2023-02-28T01:15:30;-0.40;99.90
35043;DHT22;21230;51.170;17.024;2023-02-28T01:17:57;-0.50;99.90
35043;DHT22;21230;51.170;17.024;2023-02-28T01:20:23;-0.40;99.90
35043;DHT22;21230;51.170;17.024;2023-02-28T01:22:49;-0.40;99.90
35043;DHT22;21230;51.170;17.024;2023-02-28T01:25:14;-0.40;99.90
35043;DHT22;21230;51.170;17.024;2023-02-28T01:27:40;-0.40;99.90
35043;DHT22;21230;51.170;17.024;2023-02-28T01:30:06;-0.30;99.90
35043;DHT22;21230;51.170;17.024;2023-02-28T01:32:32;-0.40;99.90
35043;DHT22;21230;51.170;17.024;2023-02-28T01:34:58;-0.40;99.90
35043;DHT22;21230;51.170;17.024;2023-02-28T01:37:23;-0.30;99.90
35043;DHT22;21230;51.170;17.024;2023-02-28T01:39:49;-0.30;99.90
35043;DHT22;21230;51.170;17.024;2023-02-28T01:42:15;-0.30;99.90
35043;DHT22;21230;51.170;17.024;2023-02-28T01:44:54;-0.30;99.90
35043;DHT22;21230;51.170;17.024;2023-02-28T01:47:20;-0.30;99.90
35043;DHT22;21230;51.170;17.024;2023-02-28T01:49:47;-0.30;99.90
35043;DHT22;21230;51.170;17.024;2023-02-28T01:52:13;-0.30;99.90
35043;DHT22;21230;51.170;17.024;2023-02-28T01:54:44;-0.30;99.90
35043;DHT22;21230;51.170;17.024;2023-02-28T01:57:14;-0.30;99.90
35043;DHT22;21230;51.170;17.024;2023-02-28T01:59:43;-0.20;99.90
35043;DHT22;21230;51.170;17.024;2023-02-28T02:02:12;-0.20;99.90
35043;DHT22;21230;51.170;17.024;2023-02-28T02:04:39;-0.10;99.90
35043;DHT22;21230;51.170;17.024;2023-02-28T02:07:05;-0.20;99.90
35043;DHT22;21230;51.170;17.024;2023-02-28T02:09:31;-0.20;99.90
35043;DHT22;21230;51.170;17.024;2023-02-28T02:11:56;-0.20;99.90
35043;DHT22;21230;51.170;17.024;2023-02-28T02:14:35;-0.10;99.90
35043;DHT22;21230;51.170;17.024;2023-02-28T02:17:05;-0.20;99.90
35043;DHT22;21230;51.170;17.024;2023-02-28T02:30:18;-0.20;99.90
35043;DHT22;21230;51.170;17.024;2023-02-28T02:37:43;-0.10;99.90
35043;DHT22;21230;51.170;17.024;2023-02-28T02:40:16;0.00;99.90
35043;DHT22;21230;51.170;17.024;2023-02-28T02:42:53;0.00;99.90
35043;DHT22;21230;51.170;17.024;2023-02-28T02:45:26;-0.10;99.90
35043;DHT22;21230;51.170;17.024;2023-02-28T02:47:53;-0.10;99.90
35043;DHT22;21230;51.170;17.024;2023-02-28T02:50:24;-0.10;99.90
35043;DHT22;21230;51.170;17.024;2023-02-28T02:52:53;-0.10;99.90
35043;DHT22;21230;51.170;17.024;2023-02-28T02:55:21;-0.10;99.90
35043;DHT22;21230;51.170;17.024;2023-02-28T02:57:48;-0.10;99.90
35043;DHT22;21230;51.170;17.024;2023-02-28T03:00:18;-0.10;99.90
35043;DHT22;21230;51.170;17.024;2023-02-28T03:02:46;-0.10;99.90
35043;DHT22;21230;51.170;17.024;2023-02-28T03:05:20;-0.20;99.90
35043;DHT22;21230;51.170;17.024;2023-02-28T03:07:46;-0.20;99.90
35043;DHT22;21230;51.170;17.024;2023-02-28T03:12:57;-0.10;99.90
35043;DHT22;21230;51.170;17.024;2023-02-28T03:15:31;-0.20;99.90
35043;DHT22;21230;51.170;17.024;2023-02-28T03:18:13;-0.10;99.90
35043;DHT22;21230;51.170;17.024;2023-02-28T03:21:05;-0.10;99.90
35043;DHT22;21230;51.170;17.024;2023-02-28T03:23:29;-0.20;99.90
35043;DHT22;21230;51.170;17.024;2023-02-28T03:26:01;-0.20;99.90
35043;DHT22;21230;51.170;17.024;2023-02-28T03:28:35;-0.20;99.90
35043;DHT22;21230;51.170;17.024;2023-02-28T03:33:28;-0.20;99.90
35043;DHT22;21230;51.170;17.024;2023-02-28T03:35:56;-0.30;99.90
35043;DHT22;21230;51.170;17.024;2023-02-28T03:38:33;-0.30;99.90
35043;DHT22;21230;51.170;17.024;2023-02-28T03:41:05;-0.30;99.90
35043;DHT22;21230;51.170;17.024;2023-02-28T03:43:33;-0.30;99.90
35043;DHT22;21230;51.170;17.024;2023-02-28T03:46:00;-0.40;99.90
35043;DHT22;21230;51.170;17.024;2023-02-28T03:48:30;-0.30;99.90
35043;DHT22;21230;51.170;17.024;2023-02-28T03:50:57;-0.20;99.90
35043;DHT22;21230;51.170;17.024;2023-02-28T03:53:37;-0.20;99.90
35043;DHT22;21230;51.170;17.024;2023-02-28T03:56:21;-0.20;99.90
35043;DHT22;21230;51.170;17.024;2023-02-28T03:58:55;-0.20;99.90
35043;DHT22;21230;51.170;17.024;2023-02-28T04:01:36;-0.20;99.90
35043;DHT22;21230;51.170;17.024;2023-02-28T04:04:03;-0.30;99.90
35043;DHT22;21230;51.170;17.024;2023-02-28T04:06:30;-0.30;99.90
35043;DHT22;21230;51.170;17.024;2023-02-28T04:08:56;-0.30;99.90
35043;DHT22;21230;51.170;17.024;2023-02-28T04:11:28;-0.30;99.90
35043;DHT22;21230;51.170;17.024;2023-02-28T04:13:57;-0.30;99.90
35043;DHT22;21230;51.170;17.024;2023-02-28T04:16:22;-0.30;99.90
35043;DHT22;21230;51.170;17.024;2023-02-28T04:18:54;-0.20;99.90
35043;DHT22;21230;51.170;17.024;2023-02-28T04:24:05;-0.20;99.90
35043;DHT22;21230;51.170;17.024;2023-02-28T04:26:31;-0.10;99.90
35043;DHT22;21230;51.170;17.024;2023-02-28T04:28:57;-0.20;99.90
35043;DHT22;21230;51.170;17.024;2023-02-28T04:31:23;-0.20;99.90
35043;DHT22;21230;51.170;17.024;2023-02-28T04:33:49;-0.10;99.90
35043;DHT22;21230;51.170;17.024;2023-02-28T04:36:15;-0.10;99.90
35043;DHT22;21230;51.170;17.024;2023-02-28T04:38:46;-0.20;99.90
35043;DHT22;21230;51.170;17.024;2023-02-28T04:41:12;-0.20;99.90
35043;DHT22;21230;51.170;17.024;2023-02-28T04:43:38;-0.20;99.90
35043;DHT22;21230;51.170;17.024;2023-02-28T04:46:04;-0.20;99.90
35043;DHT22;21230;51.170;17.024;2023-02-28T04:48:31;-0.20;99.90
35043;DHT22;21230;51.170;17.024;2023-02-28T04:51:01;-0.30;99.90
35043;DHT22;21230;51.170;17.024;2023-02-28T04:53:27;-0.20;99.90
35043;DHT22;21230;51.170;17.024;2023-02-28T04:55:54;-0.10;99.90
35043;DHT22;21230;51.170;17.024;2023-02-28T04:58:20;-0.10;99.90
35043;DHT22;21230;51.170;17.024;2023-02-28T05:00:48;-0.10;99.90
35043;DHT22;21230;51.170;17.024;2023-02-28T05:03:14;-0.20;99.90
35043;DHT22;21230;51.170;17.024;2023-02-28T05:05:39;-0.10;99.90
35043;DHT22;21230;51.170;17.024;2023-02-28T05:08:05;-0.10;99.90
35043;DHT22;21230;51.170;17.024;2023-02-28T05:10:31;-0.30;99.90
35043;DHT22;21230;51.170;17.024;2023-02-28T05:12:57;-0.30;99.90
35043;DHT22;21230;51.170;17.024;2023-02-28T05:15:24;-0.30;99.90
35043;DHT22;21230;51.170;17.024;2023-02-28T05:17:56;-0.20;99.90
35043;DHT22;21230;51.170;17.024;2023-02-28T05:20:21;-0.20;99.90
35043;DHT22;21230;51.170;17.024;2023-02-28T05:22:47;-0.20;99.90
35043;DHT22;21230;51.170;17.024;2023-02-28T05:25:13;-0.10;99.90
35043;DHT22;21230;51.170;17.024;2023-02-28T05:27:41;-0.10;99.90
35043;DHT22;21230;51.170;17.024;2023-02-28T05:30:07;-0.10;99.90
35043;DHT22;21230;51.170;17.024;2023-02-28T05:32:36;-0.10;99.90
35043;DHT22;21230;51.170;17.024;2023-02-28T05:35:02;-0.20;99.90
35043;DHT22;21230;51.170;17.024;2023-02-28T05:37:28;-0.20;99.90
35043;DHT22;21230;51.170;17.024;2023-02-28T05:39:53;-0.20;99.90
35043;DHT22;21230;51.170;17.024;2023-02-28T05:42:19;-0.20;99.90
35043;DHT22;21230;51.170;17.024;2023-02-28T05:44:44;-0.20;99.90
35043;DHT22;21230;51.170;17.024;2023-02-28T05:47:10;-0.10;99.90
35043;DHT22;21230;51.170;17.024;2023-02-28T05:49:38;-0.10;99.90
35043;DHT22;21230;51.170;17.024;2023-02-28T05:52:03;0.00;99.90
35043;DHT22;21230;51.170;17.024;2023-02-28T05:54:29;-0.10;99.90
35043;DHT22;21230;51.170;17.024;2023-02-28T05:56:55;-0.20;99.90
35043;DHT22;21230;51.170;17.024;2023-02-28T05:59:20;-0.10;99.90
35043;DHT22;21230;51.170;17.024;2023-02-28T06:01:46;-0.20;99.90
35043;DHT22;21230;51.170;17.024;2023-02-28T06:04:16;-0.30;99.90
35043;DHT22;21230;51.170;17.024;2023-02-28T06:06:44;-0.20;99.90
35043;DHT22;21230;51.170;17.024;2023-02-28T06:09:10;-0.30;99.90
35043;DHT22;21230;51.170;17.024;2023-02-28T06:11:36;-0.30;99.90
35043;DHT22;21230;51.170;17.024;2023-02-28T06:14:02;-0.20;99.90
35043;DHT22;21230;51.170;17.024;2023-02-28T06:16:28;-0.20;99.90
35043;DHT22;21230;51.170;17.024;2023-02-28T06:18:54;-0.10;99.90
35043;DHT22;21230;51.170;17.024;2023-02-28T06:21:22;-0.10;99.90
35043;DHT22;21230;51.170;17.024;2023-02-28T06:23:47;-0.10;99.90
35043;DHT22;21230;51.170;17.024;2023-02-28T06:26:13;0.00;99.90
35043;DHT22;21230;51.170;17.024;2023-02-28T06:28:39;0.00;99.90
35043;DHT22;21230;51.170;17.024;2023-02-28T06:31:08;0.10;99.90
35043;DHT22;21230;51.170;17.024;2023-02-28T06:33:35;0.20;99.90
35043;DHT22;21230;51.170;17.024;2023-02-28T06:36:01;0.20;99.90
35043;DHT22;21230;51.170;17.024;2023-02-28T06:38:27;0.20;99.90
35043;DHT22;21230;51.170;17.024;2023-02-28T06:40:56;0.20;99.90
35043;DHT22;21230;51.170;17.024;2023-02-28T06:43:22;0.30;99.90
35043;DHT22;21230;51.170;17.024;2023-02-28T06:45:48;0.30;99.90
35043;DHT22;21230;51.170;17.024;2023-02-28T06:48:14;0.30;99.90
35043;DHT22;21230;51.170;17.024;2023-02-28T06:50:40;0.30;99.90
35043;DHT22;21230;51.170;17.024;2023-02-28T06:53:05;0.40;99.90
35043;DHT22;21230;51.170;17.024;2023-02-28T06:55:31;0.40;99.90
35043;DHT22;21230;51.170;17.024;2023-02-28T06:57:57;0.50;99.90
35043;DHT22;21230;51.170;17.024;2023-02-28T07:00:23;0.60;99.90
35043;DHT22;21230;51.170;17.024;2023-02-28T07:02:50;0.70;99.90
35043;DHT22;21230;51.170;17.024;2023-02-28T07:05:16;0.80;99.90
35043;DHT22;21230;51.170;17.024;2023-02-28T07:07:41;0.90;99.90
35043;DHT22;21230;51.170;17.024;2023-02-28T07:10:10;0.90;99.90
35043;DHT22;21230;51.170;17.024;2023-02-28T07:12:36;1.10;99.90
35043;DHT22;21230;51.170;17.024;2023-02-28T07:15:03;1.20;99.90
35043;DHT22;21230;51.170;17.024;2023-02-28T07:17:29;1.20;99.90
35043;DHT22;21230;51.170;17.024;2023-02-28T07:19:54;1.20;99.90
35043;DHT22;21230;51.170;17.024;2023-02-28T07:22:20;1.30;99.80
35043;DHT22;21230;51.170;17.024;2023-02-28T07:24:46;1.20;99.90
35043;DHT22;21230;51.170;17.024;2023-02-28T07:27:11;1.50;99.90
35043;DHT22;21230;51.170;17.024;2023-02-28T07:29:37;1.60;99.90
35043;DHT22;21230;51.170;17.024;2023-02-28T07:32:03;1.70;99.80
35043;DHT22;21230;51.170;17.024;2023-02-28T07:34:29;1.80;99.90
35043;DHT22;21230;51.170;17.024;2023-02-28T07:36:55;1.90;98.00
35043;DHT22;21230;51.170;17.024;2023-02-28T07:39:21;1.80;94.90
35043;DHT22;21230;51.170;17.024;2023-02-28T07:41:47;1.70;92.60
35043;DHT22;21230;51.170;17.024;2023-02-28T07:44:13;1.90;94.10
35043;DHT22;21230;51.170;17.024;2023-02-28T07:46:38;1.90;93.90
35043;DHT22;21230;51.170;17.024;2023-02-28T07:49:05;1.90;92.20
35043;DHT22;21230;51.170;17.024;2023-02-28T07:51:31;1.80;92.00
35043;DHT22;21230;51.170;17.024;2023-02-28T07:53:56;1.90;93.00
35043;DHT22;21230;51.170;17.024;2023-02-28T07:56:22;1.90;91.30
35043;DHT22;21230;51.170;17.024;2023-02-28T07:58:48;1.90;86.20
35043;DHT22;21230;51.170;17.024;2023-02-28T08:01:14;2.00;77.70
35043;DHT22;21230;51.170;17.024;2023-02-28T08:03:40;2.20;78.10
35043;DHT22;21230;51.170;17.024;2023-02-28T08:06:06;2.20;77.00
35043;DHT22;21230;51.170;17.024;2023-02-28T08:08:32;2.20;76.90
35043;DHT22;21230;51.170;17.024;2023-02-28T08:10:58;2.20;74.70
35043;DHT22;21230;51.170;17.024;2023-02-28T08:13:25;2.20;69.50
35043;DHT22;21230;51.170;17.024;2023-02-28T08:15:50;2.30;67.70
35043;DHT22;21230;51.170;17.024;2023-02-28T08:18:16;2.20;68.40
35043;DHT22;21230;51.170;17.024;2023-02-28T08:20:41;2.20;72.40
35043;DHT22;21230;51.170;17.024;2023-02-28T08:23:07;2.40;76.00
35043;DHT22;21230;51.170;17.024;2023-02-28T08:25:33;2.50;71.40
35043;DHT22;21230;51.170;17.024;2023-02-28T08:27:58;2.40;68.50
35043;DHT22;21230;51.170;17.024;2023-02-28T08:30:24;2.50;69.70
35043;DHT22;21230;51.170;17.024;2023-02-28T08:32:50;2.50;69.40
35043;DHT22;21230;51.170;17.024;2023-02-28T08:35:15;2.60;69.90
35043;DHT22;21230;51.170;17.024;2023-02-28T08:37:41;2.80;73.40
35043;DHT22;21230;51.170;17.024;2023-02-28T08:40:07;3.00;70.20
35043;DHT22;21230;51.170;17.024;2023-02-28T08:42:33;3.00;63.70
35043;DHT22;21230;51.170;17.024;2023-02-28T08:44:58;3.10;64.50
35043;DHT22;21230;51.170;17.024;2023-02-28T08:47:24;3.00;63.10
35043;DHT22;21230;51.170;17.024;2023-02-28T08:49:50;2.90;61.60
35043;DHT22;21230;51.170;17.024;2023-02-28T08:52:15;2.60;58.80
35043;DHT22;21230;51.170;17.024;2023-02-28T08:54:41;2.80;61.10
35043;DHT22;21230;51.170;17.024;2023-02-28T08:57:07;2.40;59.20
35043;DHT22;21230;51.170;17.024;2023-02-28T08:59:32;2.40;58.80
35043;DHT22;21230;51.170;17.024;2023-02-28T09:01:58;2.50;59.70
35043;DHT22;21230;51.170;17.024;2023-02-28T09:04:24;2.60;59.30
35043;DHT22;21230;51.170;17.024;2023-02-28T09:06:50;2.90;66.10
35043;DHT22;21230;51.170;17.024;2023-02-28T09:09:15;3.00;65.00
35043;DHT22;21230;51.170;17.024;2023-02-28T09:11:41;3.10;62.90
35043;DHT22;21230;51.170;17.024;2023-02-28T09:14:07;3.20;64.10
35043;DHT22;21230;51.170;17.024;2023-02-28T09:16:33;3.30;61.90
35043;DHT22;21230;51.170;17.024;2023-02-28T09:18:59;3.30;61.20
35043;DHT22;21230;51.170;17.024;2023-02-28T09:21:24;3.30;61.90
35043;DHT22;21230;51.170;17.024;2023-02-28T09:23:50;3.40;61.40
35043;DHT22;21230;51.170;17.024;2023-02-28T09:26:17;3.50;62.80
35043;DHT22;21230;51.170;17.024;2023-02-28T09:28:43;3.80;66.50
35043;DHT22;21230;51.170;17.024;2023-02-28T09:34:12;3.90;59.20
35043;DHT22;21230;51.170;17.024;2023-02-28T09:36:38;3.80;59.20
35043;DHT22;21230;51.170;17.024;2023-02-28T09:39:04;3.50;53.00
35043;DHT22;21230;51.170;17.024;2023-02-28T09:41:32;3.20;53.90
35043;DHT22;21230;51.170;17.024;2023-02-28T09:44:04;3.30;57.00
35043;DHT22;21230;51.170;17.024;2023-02-28T09:46:38;3.40;59.20
35043;DHT22;21230;51.170;17.024;2023-02-28T09:49:23;3.70;60.50
35043;DHT22;21230;51.170;17.024;2023-02-28T09:52:01;3.50;55.40
35043;DHT22;21230;51.170;17.024;2023-02-28T09:54:29;3.50;55.20
35043;DHT22;21230;51.170;17.024;2023-02-28T09:57:05;3.60;55.30
35043;DHT22;21230;51.170;17.024;2023-02-28T10:04:54;3.60;55.40
35043;DHT22;21230;51.170;17.024;2023-02-28T10:09:55;3.80;59.60
35043;DHT22;21230;51.170;17.024;2023-02-28T10:12:23;3.60;54.30
35043;DHT22;21230;51.170;17.024;2023-02-28T10:14:53;3.50;56.30
35043;DHT22;21230;51.170;17.024;2023-02-28T10:26:05;3.40;56.60
35043;DHT22;21230;51.170;17.024;2023-02-28T10:28:35;3.60;56.40
35043;DHT22;21230;51.170;17.024;2023-02-28T10:31:01;3.80;61.00
35043;DHT22;21230;51.170;17.024;2023-02-28T10:33:28;4.10;58.90
35043;DHT22;21230;51.170;17.024;2023-02-28T10:35:54;4.10;58.10
35043;DHT22;21230;51.170;17.024;2023-02-28T10:38:28;4.20;57.70
35043;DHT22;21230;51.170;17.024;2023-02-28T10:43:42;4.40;54.00
35043;DHT22;21230;51.170;17.024;2023-02-28T10:46:11;4.30;53.90
35043;DHT22;21230;51.170;17.024;2023-02-28T10:51:08;4.70;57.10
35043;DHT22;21230;51.170;17.024;2023-02-28T10:53:36;4.90;57.70
35043;DHT22;21230;51.170;17.024;2023-02-28T10:56:16;4.90;53.90
35043;DHT22;21230;51.170;17.024;2023-02-28T11:05:32;5.00;52.50
35043;DHT22;21230;51.170;17.024;2023-02-28T11:08:04;4.80;49.50
35043;DHT22;21230;51.170;17.024;2023-02-28T11:10:31;4.40;50.40
35043;DHT22;21230;51.170;17.024;2023-02-28T11:13:00;4.40;52.40
35043;DHT22;21230;51.170;17.024;2023-02-28T11:15:30;4.50;54.80
35043;DHT22;21230;51.170;17.024;2023-02-28T11:18:06;4.00;51.60
35043;DHT22;21230;51.170;17.024;2023-02-28T11:20:40;4.00;52.30
35043;DHT22;21230;51.170;17.024;2023-02-28T11:23:06;4.20;56.00
35043;DHT22;21230;51.170;17.024;2023-02-28T11:25:37;4.40;57.90
35043;DHT22;21230;51.170;17.024;2023-02-28T11:28:04;4.70;56.60
35043;DHT22;21230;51.170;17.024;2023-02-28T11:30:41;4.70;52.90
35043;DHT22;21230;51.170;17.024;2023-02-28T11:35:51;4.40;54.90
35043;DHT22;21230;51.170;17.024;2023-02-28T11:38:18;4.40;54.70
35043;DHT22;21230;51.170;17.024;2023-02-28T11:45:46;4.00;55.90
35043;DHT22;21230;51.170;17.024;2023-02-28T11:55:38;3.70;58.50
35043;DHT22;21230;51.170;17.024;2023-02-28T12:05:45;4.40;54.70
35043;DHT22;21230;51.170;17.024;2023-02-28T12:10:41;4.30;55.00
35043;DHT22;21230;51.170;17.024;2023-02-28T12:20:54;4.20;58.80
35043;DHT22;21230;51.170;17.024;2023-02-28T12:26:15;4.10;60.10
35043;DHT22;21230;51.170;17.024;2023-02-28T12:28:44;3.70;59.70
35043;DHT22;21230;51.170;17.024;2023-02-28T12:31:31;3.70;61.10
35043;DHT22;21230;51.170;17.024;2023-02-28T12:34:00;3.50;59.20
35043;DHT22;21230;51.170;17.024;2023-02-28T12:36:29;3.50;59.60
35043;DHT22;21230;51.170;17.024;2023-02-28T12:38:56;3.50;61.40
35043;DHT22;21230;51.170;17.024;2023-02-28T12:41:31;3.50;61.10
35043;DHT22;21230;51.170;17.024;2023-02-28T12:44:09;3.50;58.90
35043;DHT22;21230;51.170;17.024;2023-02-28T12:46:48;3.70;60.00
35043;DHT22;21230;51.170;17.024;2023-02-28T12:49:19;3.90;58.80
35043;DHT22;21230;51.170;17.024;2023-02-28T12:51:47;4.00;57.00
35043;DHT22;21230;51.170;17.024;2023-02-28T12:54:21;4.00;56.30
35043;DHT22;21230;51.170;17.024;2023-02-28T12:59:34;4.00;55.20
35043;DHT22;21230;51.170;17.024;2023-02-28T13:04:39;4.30;59.10
35043;DHT22;21230;51.170;17.024;2023-02-28T13:09:53;4.40;57.60
35043;DHT22;21230;51.170;17.024;2023-02-28T13:12:19;4.60;57.10
35043;DHT22;21230;51.170;17.024;2023-02-28T13:14:45;4.70;55.30
35043;DHT22;21230;51.170;17.024;2023-02-28T13:17:12;4.60;53.10
35043;DHT22;21230;51.170;17.024;2023-02-28T13:19:44;4.70;56.10
35043;DHT22;21230;51.170;17.024;2023-02-28T13:22:18;4.60;52.20
35043;DHT22;21230;51.170;17.024;2023-02-28T13:27:11;4.90;57.80
35043;DHT22;21230;51.170;17.024;2023-02-28T13:29:38;4.80;54.40
35043;DHT22;21230;51.170;17.024;2023-02-28T13:45:19;4.30;56.70
35043;DHT22;21230;51.170;17.024;2023-02-28T14:03:27;4.70;58.20
35043;DHT22;21230;51.170;17.024;2023-02-28T14:08:38;4.70;55.10
35043;DHT22;21230;51.170;17.024;2023-02-28T14:11:22;4.70;55.70
35043;DHT22;21230;51.170;17.024;2023-02-28T14:13:48;5.00;67.40
35043;DHT22;21230;51.170;17.024;2023-02-28T14:16:25;4.90;53.90
35043;DHT22;21230;51.170;17.024;2023-02-28T14:18:56;4.80;53.70
35043;DHT22;21230;51.170;17.024;2023-02-28T14:21:24;4.70;55.30
35043;DHT22;21230;51.170;17.024;2023-02-28T14:31:45;4.90;54.10
35043;DHT22;21230;51.170;17.024;2023-02-28T14:34:31;4.70;53.10
35043;DHT22;21230;51.170;17.024;2023-02-28T14:37:01;4.70;54.10
35043;DHT22;21230;51.170;17.024;2023-02-28T14:39:27;4.70;54.20
35043;DHT22;21230;51.170;17.024;2023-02-28T14:41:56;4.60;53.40
35043;DHT22;21230;51.170;17.024;2023-02-28T14:44:25;4.50;55.00
35043;DHT22;21230;51.170;17.024;2023-02-28T14:46:58;4.50;55.10
35043;DHT22;21230;51.170;17.024;2023-02-28T14:49:27;4.40;54.50
35043;DHT22;21230;51.170;17.024;2023-02-28T14:54:31;4.60;53.50
35043;DHT22;21230;51.170;17.024;2023-02-28T14:56:57;4.50;54.80
35043;DHT22;21230;51.170;17.024;2023-02-28T14:59:29;4.40;55.60
35043;DHT22;21230;51.170;17.024;2023-02-28T15:04:40;4.10;55.50
35043;DHT22;21230;51.170;17.024;2023-02-28T15:07:12;4.00;55.50
35043;DHT22;21230;51.170;17.024;2023-02-28T15:09:38;4.00;55.30
35043;DHT22;21230;51.170;17.024;2023-02-28T15:12:04;3.80;55.00
35043;DHT22;21230;51.170;17.024;2023-02-28T15:14:29;3.90;55.70
35043;DHT22;21230;51.170;17.024;2023-02-28T15:17:06;3.90;55.80
35043;DHT22;21230;51.170;17.024;2023-02-28T15:19:34;3.90;56.10
35043;DHT22;21230;51.170;17.024;2023-02-28T15:22:05;3.90;56.00
35043;DHT22;21230;51.170;17.024;2023-02-28T15:24:45;3.80;57.10
35043;DHT22;21230;51.170;17.024;2023-02-28T15:27:13;3.80;57.40
35043;DHT22;21230;51.170;17.024;2023-02-28T15:29:48;3.90;57.30
35043;DHT22;21230;51.170;17.024;2023-02-28T15:34:54;3.90;57.20
35043;DHT22;21230;51.170;17.024;2023-02-28T15:37:27;4.00;57.10
35043;DHT22;21230;51.170;17.024;2023-02-28T15:39:55;3.90;55.50
35043;DHT22;21230;51.170;17.024;2023-02-28T15:42:22;3.80;57.20
35043;DHT22;21230;51.170;17.024;2023-02-28T15:44:49;3.70;58.40
35043;DHT22;21230;51.170;17.024;2023-02-28T15:47:19;3.70;56.60
35043;DHT22;21230;51.170;17.024;2023-02-28T15:49:47;3.70;57.10
35043;DHT22;21230;51.170;17.024;2023-02-28T15:52:15;3.60;57.70
35043;DHT22;21230;51.170;17.024;2023-02-28T15:54:41;3.50;58.20
35043;DHT22;21230;51.170;17.024;2023-02-28T15:57:10;3.50;58.00
35043;DHT22;21230;51.170;17.024;2023-02-28T15:59:38;3.40;58.70
35043;DHT22;21230;51.170;17.024;2023-02-28T16:04:29;3.10;62.60
35043;DHT22;21230;51.170;17.024;2023-02-28T16:07:04;2.90;63.10
35043;DHT22;21230;51.170;17.024;2023-02-28T16:09:30;2.90;64.90
35043;DHT22;21230;51.170;17.024;2023-02-28T16:11:59;2.70;65.50
35043;DHT22;21230;51.170;17.024;2023-02-28T16:14:27;2.60;67.50
35043;DHT22;21230;51.170;17.024;2023-02-28T16:16:56;2.60;69.00
35043;DHT22;21230;51.170;17.024;2023-02-28T16:19:22;2.50;70.80
35043;DHT22;21230;51.170;17.024;2023-02-28T16:21:48;2.50;72.00
35043;DHT22;21230;51.170;17.024;2023-02-28T16:24:14;2.40;73.30
35043;DHT22;21230;51.170;17.024;2023-02-28T16:26:40;2.40;74.20
35043;DHT22;21230;51.170;17.024;2023-02-28T16:29:06;2.40;76.40
35043;DHT22;21230;51.170;17.024;2023-02-28T16:31:37;2.30;76.70
35043;DHT22;21230;51.170;17.024;2023-02-28T16:34:03;2.30;76.40
35043;DHT22;21230;51.170;17.024;2023-02-28T16:36:30;2.30;77.00
35043;DHT22;21230;51.170;17.024;2023-02-28T16:38:55;2.30;77.30
35043;DHT22;21230;51.170;17.024;2023-02-28T16:41:23;2.20;78.30
35043;DHT22;21230;51.170;17.024;2023-02-28T16:43:51;2.10;80.70
35043;DHT22;21230;51.170;17.024;2023-02-28T16:46:18;2.00;82.60
35043;DHT22;21230;51.170;17.024;2023-02-28T16:48:44;1.90;84.80
35043;DHT22;21230;51.170;17.024;2023-02-28T16:51:14;1.90;85.20
35043;DHT22;21230;51.170;17.024;2023-02-28T16:53:40;1.90;85.10
35043;DHT22;21230;51.170;17.024;2023-02-28T16:56:06;1.90;85.10
35043;DHT22;21230;51.170;17.024;2023-02-28T16:58:37;1.90;86.40
35043;DHT22;21230;51.170;17.024;2023-02-28T17:01:03;1.90;86.70
35043;DHT22;21230;51.170;17.024;2023-02-28T17:03:30;1.70;90.20
35043;DHT22;21230;51.170;17.024;2023-02-28T17:05:56;1.60;91.50
35043;DHT22;21230;51.170;17.024;2023-02-28T17:08:22;1.50;92.70
35043;DHT22;21230;51.170;17.024;2023-02-28T17:10:47;1.40;94.00
35043;DHT22;21230;51.170;17.024;2023-02-28T17:13:13;1.40;94.50
35043;DHT22;21230;51.170;17.024;2023-02-28T17:15:39;1.40;95.10
35043;DHT22;21230;51.170;17.024;2023-02-28T17:18:06;1.40;95.30
35043;DHT22;21230;51.170;17.024;2023-02-28T17:20:35;1.30;95.80
35043;DHT22;21230;51.170;17.024;2023-02-28T17:23:01;1.30;96.30
35043;DHT22;21230;51.170;17.024;2023-02-28T17:25:29;1.20;97.60
35043;DHT22;21230;51.170;17.024;2023-02-28T17:27:57;1.10;98.60
35043;DHT22;21230;51.170;17.024;2023-02-28T17:30:24;1.10;99.90
35043;DHT22;21230;51.170;17.024;2023-02-28T17:32:50;1.00;99.90
35043;DHT22;21230;51.170;17.024;2023-02-28T17:35:16;1.00;99.90
35043;DHT22;21230;51.170;17.024;2023-02-28T17:37:42;0.90;99.90
35043;DHT22;21230;51.170;17.024;2023-02-28T17:40:19;0.80;99.90
35043;DHT22;21230;51.170;17.024;2023-02-28T17:42:45;0.80;99.90
35043;DHT22;21230;51.170;17.024;2023-02-28T17:45:11;0.80;99.90
35043;DHT22;21230;51.170;17.024;2023-02-28T17:47:37;0.70;99.90
35043;DHT22;21230;51.170;17.024;2023-02-28T17:50:03;0.60;99.90
35043;DHT22;21230;51.170;17.024;2023-02-28T17:52:31;0.50;99.90
35043;DHT22;21230;51.170;17.024;2023-02-28T17:55:02;0.50;99.90
35043;DHT22;21230;51.170;17.024;2023-02-28T17:57:29;0.40;99.90
35043;DHT22;21230;51.170;17.024;2023-02-28T17:59:55;0.40;99.90